高雄國際航空站 - 塔台/地面席

METAR RCKH 290700Z 06005KT 9999 FEW015 SCT030 BKN200 31/26 Q1000 NOSIG RMK A2955=

站台狀態:Offline
最後更新:2021-07-29 15:00:01